sensor_id;sensor_type;location;lat;lon;timestamp;pressure;altitude;pressure_sealevel;temperature;humidity
11672;BME280;5892;43.412;24.612;2023-04-21T00:01:00;99505.16;;;12.02;100.00
11672;BME280;5892;43.412;24.612;2023-04-21T00:03:29;99372.03;;;10.97;100.00
11672;BME280;5892;43.412;24.612;2023-04-21T00:05:58;99413.63;;;11.32;100.00
11672;BME280;5892;43.412;24.612;2023-04-21T00:08:25;99510.81;;;11.84;100.00
11672;BME280;5892;43.412;24.612;2023-04-21T00:10:52;99490.59;;;11.68;100.00
11672;BME280;5892;43.412;24.612;2023-04-21T00:13:21;99484.59;;;11.75;100.00
11672;BME280;5892;43.412;24.612;2023-04-21T00:15:48;99485.50;;;11.79;100.00
11672;BME280;5892;43.412;24.612;2023-04-21T00:18:15;99499.13;;;11.75;100.00
11672;BME280;5892;43.412;24.612;2023-04-21T00:20:43;99487.81;;;11.77;100.00
11672;BME280;5892;43.412;24.612;2023-04-21T00:23:11;99449.47;;;11.47;100.00
11672;BME280;5892;43.412;24.612;2023-04-21T00:25:37;99472.19;;;11.69;100.00
11672;BME280;5892;43.412;24.612;2023-04-21T00:28:04;99434.72;;;11.40;100.00
11672;BME280;5892;43.412;24.612;2023-04-21T00:30:33;99493.34;;;11.68;100.00
11672;BME280;5892;43.412;24.612;2023-04-21T00:33:00;99375.22;;;10.78;100.00
11672;BME280;5892;43.412;24.612;2023-04-21T00:35:27;99379.31;;;10.93;100.00
11672;BME280;5892;43.412;24.612;2023-04-21T00:37:53;99510.44;;;11.53;100.00
11672;BME280;5892;43.412;24.612;2023-04-21T00:40:21;99495.97;;;11.65;100.00
11672;BME280;5892;43.412;24.612;2023-04-21T00:42:47;99401.97;;;11.02;100.00
11672;BME280;5892;43.412;24.612;2023-04-21T00:45:15;99410.41;;;10.97;100.00
11672;BME280;5892;43.412;24.612;2023-04-21T00:47:43;99496.50;;;11.79;100.00
11672;BME280;5892;43.412;24.612;2023-04-21T00:50:11;99500.53;;;11.81;100.00
11672;BME280;5892;43.412;24.612;2023-04-21T00:52:38;99510.69;;;11.81;100.00
11672;BME280;5892;43.412;24.612;2023-04-21T00:55:06;99481.69;;;11.71;100.00
11672;BME280;5892;43.412;24.612;2023-04-21T00:57:35;99356.41;;;10.77;100.00
11672;BME280;5892;43.412;24.612;2023-04-21T01:00:02;99393.34;;;11.12;100.00
11672;BME280;5892;43.412;24.612;2023-04-21T01:02:30;99399.31;;;11.14;100.00
11672;BME280;5892;43.412;24.612;2023-04-21T01:05:03;99343.81;;;10.76;100.00
11672;BME280;5892;43.412;24.612;2023-04-21T01:07:33;99468.03;;;11.63;100.00
11672;BME280;5892;43.412;24.612;2023-04-21T01:10:00;99497.56;;;11.66;100.00
11672;BME280;5892;43.412;24.612;2023-04-21T01:12:27;99479.09;;;11.75;100.00
11672;BME280;5892;43.412;24.612;2023-04-21T01:14:55;99369.78;;;11.11;100.00
11672;BME280;5892;43.412;24.612;2023-04-21T01:17:22;99480.28;;;11.86;100.00
11672;BME280;5892;43.412;24.612;2023-04-21T01:19:52;99472.63;;;11.92;100.00
11672;BME280;5892;43.412;24.612;2023-04-21T01:22:23;99434.47;;;11.66;100.00
11672;BME280;5892;43.412;24.612;2023-04-21T01:24:51;99505.69;;;11.95;100.00
11672;BME280;5892;43.412;24.612;2023-04-21T01:27:20;99473.66;;;11.99;100.00
11672;BME280;5892;43.412;24.612;2023-04-21T01:29:48;99472.31;;;11.93;100.00
11672;BME280;5892;43.412;24.612;2023-04-21T01:32:17;99475.06;;;11.93;100.00
11672;BME280;5892;43.412;24.612;2023-04-21T01:34:46;99469.69;;;11.97;100.00
11672;BME280;5892;43.412;24.612;2023-04-21T01:37:15;99473.66;;;11.99;100.00
11672;BME280;5892;43.412;24.612;2023-04-21T01:39:45;99430.78;;;11.62;100.00
11672;BME280;5892;43.412;24.612;2023-04-21T01:42:13;99432.94;;;11.77;100.00
11672;BME280;5892;43.412;24.612;2023-04-21T01:44:40;99334.84;;;11.08;100.00
11672;BME280;5892;43.412;24.612;2023-04-21T01:47:07;99478.34;;;11.99;100.00
11672;BME280;5892;43.412;24.612;2023-04-21T01:49:34;99412.25;;;11.59;100.00
11672;BME280;5892;43.412;24.612;2023-04-21T01:52:01;99367.66;;;11.17;100.00
11672;BME280;5892;43.412;24.612;2023-04-21T01:54:28;99390.03;;;11.39;100.00
11672;BME280;5892;43.412;24.612;2023-04-21T01:56:57;99344.47;;;11.14;100.00
11672;BME280;5892;43.412;24.612;2023-04-21T01:59:25;99414.34;;;11.62;100.00
11672;BME280;5892;43.412;24.612;2023-04-21T02:01:52;99473.22;;;12.09;100.00
11672;BME280;5892;43.412;24.612;2023-04-21T02:04:18;99444.38;;;11.91;100.00
11672;BME280;5892;43.412;24.612;2023-04-21T02:06:45;99393.84;;;11.59;99.75
11672;BME280;5892;43.412;24.612;2023-04-21T02:09:13;99470.06;;;12.19;98.53
11672;BME280;5892;43.412;24.612;2023-04-21T02:11:40;99411.78;;;11.77;98.78
11672;BME280;5892;43.412;24.612;2023-04-21T02:14:08;99455.19;;;12.08;98.38
11672;BME280;5892;43.412;24.612;2023-04-21T02:16:35;99360.91;;;11.59;98.12
11672;BME280;5892;43.412;24.612;2023-04-21T02:19:02;99373.69;;;11.43;99.74
11672;BME280;5892;43.412;24.612;2023-04-21T02:21:30;99406.81;;;11.71;100.00
11672;BME280;5892;43.412;24.612;2023-04-21T02:23:58;99336.19;;;11.35;100.00
11672;BME280;5892;43.412;24.612;2023-04-21T02:26:24;99385.25;;;11.48;99.98
11672;BME280;5892;43.412;24.612;2023-04-21T02:28:51;99365.78;;;11.41;99.06
11672;BME280;5892;43.412;24.612;2023-04-21T02:31:20;99465.22;;;12.04;100.00
11672;BME280;5892;43.412;24.612;2023-04-21T02:33:47;99463.28;;;12.05;100.00
11672;BME280;5892;43.412;24.612;2023-04-21T02:36:14;99438.19;;;11.82;100.00
11672;BME280;5892;43.412;24.612;2023-04-21T02:38:41;99484.66;;;11.87;100.00
11672;BME280;5892;43.412;24.612;2023-04-21T02:41:08;99458.53;;;11.81;100.00
11672;BME280;5892;43.412;24.612;2023-04-21T02:43:34;99473.94;;;11.73;100.00
11672;BME280;5892;43.412;24.612;2023-04-21T02:46:05;99470.25;;;11.69;100.00
11672;BME280;5892;43.412;24.612;2023-04-21T02:48:33;99476.16;;;11.59;100.00
11672;BME280;5892;43.412;24.612;2023-04-21T02:51:00;99480.94;;;11.50;100.00
11672;BME280;5892;43.412;24.612;2023-04-21T02:53:28;99477.13;;;11.42;100.00
11672;BME280;5892;43.412;24.612;2023-04-21T02:55:55;99360.78;;;10.69;100.00
11672;BME280;5892;43.412;24.612;2023-04-21T02:58:22;99477.53;;;11.32;100.00
11672;BME280;5892;43.412;24.612;2023-04-21T03:00:49;99475.91;;;11.31;100.00
11672;BME280;5892;43.412;24.612;2023-04-21T03:03:16;99473.25;;;11.23;100.00
11672;BME280;5892;43.412;24.612;2023-04-21T03:05:44;99462.56;;;11.09;100.00
11672;BME280;5892;43.412;24.612;2023-04-21T03:08:11;99472.97;;;11.16;100.00
11672;BME280;5892;43.412;24.612;2023-04-21T03:10:38;99471.25;;;11.11;100.00
11672;BME280;5892;43.412;24.612;2023-04-21T03:13:05;99453.31;;;10.93;100.00
11672;BME280;5892;43.412;24.612;2023-04-21T03:15:32;99476.91;;;11.06;100.00
11672;BME280;5892;43.412;24.612;2023-04-21T03:17:59;99455.91;;;10.89;100.00
11672;BME280;5892;43.412;24.612;2023-04-21T03:20:26;99475.06;;;10.98;100.00
11672;BME280;5892;43.412;24.612;2023-04-21T03:22:54;99471.34;;;10.94;100.00
11672;BME280;5892;43.412;24.612;2023-04-21T03:25:21;99478.19;;;10.88;100.00
11672;BME280;5892;43.412;24.612;2023-04-21T03:27:49;99465.34;;;10.80;100.00
11672;BME280;5892;43.412;24.612;2023-04-21T03:30:16;99481.19;;;10.95;100.00
11672;BME280;5892;43.412;24.612;2023-04-21T03:32:43;99478.31;;;10.91;100.00
11672;BME280;5892;43.412;24.612;2023-04-21T03:35:09;99482.50;;;10.89;100.00
11672;BME280;5892;43.412;24.612;2023-04-21T03:37:36;99451.00;;;10.74;100.00
11672;BME280;5892;43.412;24.612;2023-04-21T03:40:06;99470.91;;;10.92;100.00
11672;BME280;5892;43.412;24.612;2023-04-21T03:42:33;99488.22;;;11.04;100.00
11672;BME280;5892;43.412;24.612;2023-04-21T03:45:01;99482.88;;;11.08;100.00
11672;BME280;5892;43.412;24.612;2023-04-21T03:47:28;99488.50;;;11.12;100.00
11672;BME280;5892;43.412;24.612;2023-04-21T03:49:56;99485.47;;;11.25;100.00
11672;BME280;5892;43.412;24.612;2023-04-21T03:52:23;99500.97;;;11.63;100.00
11672;BME280;5892;43.412;24.612;2023-04-21T03:54:50;99483.03;;;11.86;100.00
11672;BME280;5892;43.412;24.612;2023-04-21T03:57:18;99486.22;;;11.88;100.00
11672;BME280;5892;43.412;24.612;2023-04-21T03:59:46;99498.25;;;11.96;100.00
11672;BME280;5892;43.412;24.612;2023-04-21T04:02:13;99505.56;;;12.37;98.54
11672;BME280;5892;43.412;24.612;2023-04-21T04:04:40;99501.22;;;12.60;96.83
11672;BME280;5892;43.412;24.612;2023-04-21T04:07:07;99506.94;;;12.91;94.92
11672;BME280;5892;43.412;24.612;2023-04-21T04:09:36;99516.09;;;13.20;92.32
11672;BME280;5892;43.412;24.612;2023-04-21T04:12:03;99527.47;;;13.18;91.40
11672;BME280;5892;43.412;24.612;2023-04-21T04:14:32;99525.81;;;12.93;91.98
11672;BME280;5892;43.412;24.612;2023-04-21T04:16:59;99537.97;;;12.67;93.05
11672;BME280;5892;43.412;24.612;2023-04-21T04:19:29;99546.69;;;12.45;93.43
11672;BME280;5892;43.412;24.612;2023-04-21T04:21:57;99539.66;;;12.36;93.87
11672;BME280;5892;43.412;24.612;2023-04-21T04:24:25;99479.25;;;11.91;93.24
11672;BME280;5892;43.412;24.612;2023-04-21T04:26:52;99563.25;;;12.24;94.32
11672;BME280;5892;43.412;24.612;2023-04-21T04:29:20;99564.19;;;12.53;94.09
11672;BME280;5892;43.412;24.612;2023-04-21T04:31:50;99566.22;;;13.13;91.85
11672;BME280;5892;43.412;24.612;2023-04-21T04:34:17;99522.22;;;13.41;87.87
11672;BME280;5892;43.412;24.612;2023-04-21T04:36:44;99578.25;;;14.00;87.74
11672;BME280;5892;43.412;24.612;2023-04-21T04:39:12;99580.22;;;13.88;87.75
11672;BME280;5892;43.412;24.612;2023-04-21T04:41:39;99563.56;;;13.69;88.47
11672;BME280;5892;43.412;24.612;2023-04-21T04:44:06;99566.81;;;13.58;89.17
11672;BME280;5892;43.412;24.612;2023-04-21T04:46:33;99533.47;;;13.36;89.80
11672;BME280;5892;43.412;24.612;2023-04-21T04:49:02;99573.38;;;13.42;89.32
11672;BME280;5892;43.412;24.612;2023-04-21T04:51:30;99547.06;;;13.17;89.11
11672;BME280;5892;43.412;24.612;2023-04-21T04:53:58;99571.66;;;13.37;89.50
11672;BME280;5892;43.412;24.612;2023-04-21T04:56:25;99571.75;;;13.41;90.17
11672;BME280;5892;43.412;24.612;2023-04-21T04:58:51;99571.28;;;13.51;90.16
11672;BME280;5892;43.412;24.612;2023-04-21T05:01:18;99563.16;;;13.42;89.86
11672;BME280;5892;43.412;24.612;2023-04-21T05:03:45;99581.16;;;13.52;90.42
11672;BME280;5892;43.412;24.612;2023-04-21T05:06:13;99552.06;;;13.27;90.31
11672;BME280;5892;43.412;24.612;2023-04-21T05:08:40;99585.28;;;13.46;90.24
11672;BME280;5892;43.412;24.612;2023-04-21T05:11:07;99553.63;;;13.40;89.51
11672;BME280;5892;43.412;24.612;2023-04-21T05:13:34;99593.75;;;13.65;88.60
11672;BME280;5892;43.412;24.612;2023-04-21T05:16:01;99589.16;;;13.69;88.67
11672;BME280;5892;43.412;24.612;2023-04-21T05:18:28;99461.69;;;12.89;89.53
11672;BME280;5892;43.412;24.612;2023-04-21T05:20:55;99590.03;;;13.73;89.04
11672;BME280;5892;43.412;24.612;2023-04-21T05:23:24;99582.44;;;13.82;88.91
11672;BME280;5892;43.412;24.612;2023-04-21T05:25:50;99573.53;;;13.73;88.52
11672;BME280;5892;43.412;24.612;2023-04-21T05:28:17;99578.78;;;13.78;88.54
11672;BME280;5892;43.412;24.612;2023-04-21T05:30:44;99589.44;;;13.80;87.54
11672;BME280;5892;43.412;24.612;2023-04-21T05:33:11;99588.16;;;13.89;87.96
11672;BME280;5892;43.412;24.612;2023-04-21T05:35:38;99600.50;;;14.08;87.15
11672;BME280;5892;43.412;24.612;2023-04-21T05:38:05;99590.00;;;14.13;86.02
11672;BME280;5892;43.412;24.612;2023-04-21T05:40:33;99602.50;;;14.23;85.67
11672;BME280;5892;43.412;24.612;2023-04-21T05:43:00;99607.03;;;14.31;84.43
11672;BME280;5892;43.412;24.612;2023-04-21T05:45:27;99618.63;;;14.36;83.05
11672;BME280;5892;43.412;24.612;2023-04-21T05:47:54;99613.94;;;14.37;82.70
11672;BME280;5892;43.412;24.612;2023-04-21T05:50:21;99603.50;;;14.03;83.37
11672;BME280;5892;43.412;24.612;2023-04-21T05:52:47;99615.59;;;14.14;86.15
11672;BME280;5892;43.412;24.612;2023-04-21T05:55:14;99607.50;;;14.05;85.27
11672;BME280;5892;43.412;24.612;2023-04-21T05:57:42;99622.78;;;14.03;85.42
11672;BME280;5892;43.412;24.612;2023-04-21T06:00:10;99613.59;;;13.98;85.48
11672;BME280;5892;43.412;24.612;2023-04-21T06:02:37;99604.19;;;13.99;86.04
11672;BME280;5892;43.412;24.612;2023-04-21T06:05:05;99610.97;;;14.02;85.26
11672;BME280;5892;43.412;24.612;2023-04-21T06:07:31;99611.34;;;13.88;85.14
11672;BME280;5892;43.412;24.612;2023-04-21T06:10:01;99611.09;;;13.93;84.87
11672;BME280;5892;43.412;24.612;2023-04-21T06:12:28;99612.91;;;14.02;84.51
11672;BME280;5892;43.412;24.612;2023-04-21T06:14:58;99589.50;;;13.95;86.58
11672;BME280;5892;43.412;24.612;2023-04-21T06:17:25;99612.16;;;14.17;87.64
11672;BME280;5892;43.412;24.612;2023-04-21T06:19:51;99611.09;;;14.21;89.19
11672;BME280;5892;43.412;24.612;2023-04-21T06:22:20;99621.47;;;14.40;90.08
11672;BME280;5892;43.412;24.612;2023-04-21T06:24:47;99614.78;;;14.69;89.12
11672;BME280;5892;43.412;24.612;2023-04-21T06:27:14;99620.03;;;14.90;88.62
11672;BME280;5892;43.412;24.612;2023-04-21T06:29:41;99606.59;;;15.04;87.70
11672;BME280;5892;43.412;24.612;2023-04-21T06:32:10;99613.44;;;15.10;86.35
11672;BME280;5892;43.412;24.612;2023-04-21T06:34:37;99616.91;;;15.22;84.52
11672;BME280;5892;43.412;24.612;2023-04-21T06:37:04;99607.84;;;15.06;84.96
11672;BME280;5892;43.412;24.612;2023-04-21T06:39:31;99601.13;;;15.23;83.63
11672;BME280;5892;43.412;24.612;2023-04-21T06:41:58;99612.03;;;15.51;83.68
11672;BME280;5892;43.412;24.612;2023-04-21T06:44:26;99614.66;;;15.59;82.24
11672;BME280;5892;43.412;24.612;2023-04-21T06:46:53;99616.75;;;15.66;81.48
11672;BME280;5892;43.412;24.612;2023-04-21T06:49:23;99595.16;;;15.37;81.93
11672;BME280;5892;43.412;24.612;2023-04-21T06:51:50;99631.84;;;15.37;80.40
11672;BME280;5892;43.412;24.612;2023-04-21T06:54:17;99621.25;;;15.08;82.49
11672;BME280;5892;43.412;24.612;2023-04-21T06:56:44;99627.69;;;15.27;81.78
11672;BME280;5892;43.412;24.612;2023-04-21T06:59:11;99630.44;;;15.12;82.63
11672;BME280;5892;43.412;24.612;2023-04-21T07:01:38;99622.97;;;15.12;84.81
11672;BME280;5892;43.412;24.612;2023-04-21T07:04:05;99558.75;;;14.65;83.58
11672;BME280;5892;43.412;24.612;2023-04-21T07:06:34;99502.84;;;14.21;83.89
11672;BME280;5892;43.412;24.612;2023-04-21T07:09:03;99504.75;;;14.05;83.61
11672;BME280;5892;43.412;24.612;2023-04-21T07:11:30;99634.63;;;15.06;83.33
11672;BME280;5892;43.412;24.612;2023-04-21T07:13:59;99639.16;;;15.14;82.88
11672;BME280;5892;43.412;24.612;2023-04-21T07:16:26;99492.53;;;14.33;81.79
11672;BME280;5892;43.412;24.612;2023-04-21T07:18:55;99644.63;;;15.45;81.46
11672;BME280;5892;43.412;24.612;2023-04-21T07:21:22;99592.03;;;15.38;80.06
11672;BME280;5892;43.412;24.612;2023-04-21T07:23:51;99506.88;;;15.21;78.49
11672;BME280;5892;43.412;24.612;2023-04-21T07:26:18;99595.69;;;15.77;78.23
11672;BME280;5892;43.412;24.612;2023-04-21T07:28:46;99574.44;;;15.62;79.46
11672;BME280;5892;43.412;24.612;2023-04-21T07:31:14;99641.56;;;16.39;78.76
11672;BME280;5892;43.412;24.612;2023-04-21T07:33:43;99632.53;;;16.62;78.51
11672;BME280;5892;43.412;24.612;2023-04-21T07:36:10;99510.56;;;15.83;77.49
11672;BME280;5892;43.412;24.612;2023-04-21T07:38:37;99632.06;;;16.79;77.71
11672;BME280;5892;43.412;24.612;2023-04-21T07:41:09;99639.56;;;16.78;76.37
11672;BME280;5892;43.412;24.612;2023-04-21T07:43:37;99638.78;;;16.78;76.01
11672;BME280;5892;43.412;24.612;2023-04-21T07:46:05;99614.78;;;16.63;75.65
11672;BME280;5892;43.412;24.612;2023-04-21T07:48:34;99607.03;;;16.72;75.81
11672;BME280;5892;43.412;24.612;2023-04-21T07:51:02;99643.81;;;16.72;77.72
11672;BME280;5892;43.412;24.612;2023-04-21T07:53:30;99480.75;;;15.73;78.98
11672;BME280;5892;43.412;24.612;2023-04-21T07:55:57;99656.03;;;16.71;77.23
11672;BME280;5892;43.412;24.612;2023-04-21T07:58:25;99584.97;;;16.33;78.09
11672;BME280;5892;43.412;24.612;2023-04-21T08:00:54;99644.56;;;16.69;77.33
11672;BME280;5892;43.412;24.612;2023-04-21T08:03:21;99663.38;;;16.83;76.82
11672;BME280;5892;43.412;24.612;2023-04-21T08:05:49;99653.41;;;16.78;77.02
11672;BME280;5892;43.412;24.612;2023-04-21T08:08:16;99539.19;;;15.55;79.02
11672;BME280;5892;43.412;24.612;2023-04-21T08:10:46;99682.03;;;16.47;80.38
11672;BME280;5892;43.412;24.612;2023-04-21T08:13:13;99662.22;;;16.45;80.43
11672;BME280;5892;43.412;24.612;2023-04-21T08:15:42;99557.88;;;15.62;80.82
11672;BME280;5892;43.412;24.612;2023-04-21T08:18:10;99684.13;;;16.35;79.58
11672;BME280;5892;43.412;24.612;2023-04-21T08:20:38;99532.00;;;15.35;79.52
11672;BME280;5892;43.412;24.612;2023-04-21T08:23:05;99622.66;;;16.03;80.10
11672;BME280;5892;43.412;24.612;2023-04-21T08:25:32;99597.28;;;15.78;80.70
11672;BME280;5892;43.412;24.612;2023-04-21T08:28:03;99629.63;;;15.97;81.29
11672;BME280;5892;43.412;24.612;2023-04-21T08:30:50;99673.38;;;16.30;81.89
11672;BME280;5892;43.412;24.612;2023-04-21T08:33:17;99554.38;;;15.30;82.11
11672;BME280;5892;43.412;24.612;2023-04-21T08:35:46;99529.13;;;15.47;82.49
11672;BME280;5892;43.412;24.612;2023-04-21T08:38:14;99567.19;;;15.92;83.70
11672;BME280;5892;43.412;24.612;2023-04-21T08:40:41;99624.25;;;16.62;81.36
11672;BME280;5892;43.412;24.612;2023-04-21T08:43:08;99649.59;;;17.09;81.10
11672;BME280;5892;43.412;24.612;2023-04-21T08:45:35;99630.84;;;16.99;79.21
11672;BME280;5892;43.412;24.612;2023-04-21T08:48:04;99644.81;;;17.32;78.36
11672;BME280;5892;43.412;24.612;2023-04-21T08:50:33;99661.69;;;17.47;76.57
11672;BME280;5892;43.412;24.612;2023-04-21T08:53:02;99536.97;;;16.64;76.39
11672;BME280;5892;43.412;24.612;2023-04-21T08:55:30;99664.28;;;17.36;76.99
11672;BME280;5892;43.412;24.612;2023-04-21T08:57:58;99602.19;;;17.11;74.82
11672;BME280;5892;43.412;24.612;2023-04-21T09:00:25;99556.13;;;16.53;75.88
11672;BME280;5892;43.412;24.612;2023-04-21T09:02:54;99658.44;;;17.41;75.40
11672;BME280;5892;43.412;24.612;2023-04-21T09:05:24;99658.97;;;17.76;74.87
11672;BME280;5892;43.412;24.612;2023-04-21T09:08:07;99637.66;;;17.81;73.76
11672;BME280;5892;43.412;24.612;2023-04-21T09:10:42;99661.38;;;18.38;72.13
11672;BME280;5892;43.412;24.612;2023-04-21T09:13:10;99539.94;;;17.84;70.79
11672;BME280;5892;43.412;24.612;2023-04-21T09:15:38;99623.50;;;18.19;66.74
11672;BME280;5892;43.412;24.612;2023-04-21T09:18:11;99524.78;;;17.48;65.56
11672;BME280;5892;43.412;24.612;2023-04-21T09:20:41;99608.81;;;18.15;67.10
11672;BME280;5892;43.412;24.612;2023-04-21T09:23:09;99529.47;;;17.44;68.38
11672;BME280;5892;43.412;24.612;2023-04-21T09:25:40;99500.13;;;17.09;69.02
11672;BME280;5892;43.412;24.612;2023-04-21T09:28:08;99655.41;;;18.06;67.18
11672;BME280;5892;43.412;24.612;2023-04-21T09:30:36;99517.25;;;17.18;68.50
11672;BME280;5892;43.412;24.612;2023-04-21T09:33:06;99651.72;;;18.25;67.27
11672;BME280;5892;43.412;24.612;2023-04-21T09:35:34;99519.28;;;17.51;65.53
11672;BME280;5892;43.412;24.612;2023-04-21T09:38:09;99687.63;;;18.77;65.34
11672;BME280;5892;43.412;24.612;2023-04-21T09:40:37;99655.63;;;18.90;61.69
11672;BME280;5892;43.412;24.612;2023-04-21T09:43:05;99518.63;;;17.91;61.07
11672;BME280;5892;43.412;24.612;2023-04-21T09:45:33;99532.22;;;18.03;63.05
11672;BME280;5892;43.412;24.612;2023-04-21T09:48:00;99554.59;;;18.58;63.72
11672;BME280;5892;43.412;24.612;2023-04-21T09:50:28;99547.94;;;18.66;61.55
11672;BME280;5892;43.412;24.612;2023-04-21T09:52:56;99538.47;;;18.30;58.57
11672;BME280;5892;43.412;24.612;2023-04-21T09:55:28;99668.09;;;19.11;59.03
11672;BME280;5892;43.412;24.612;2023-04-21T09:57:58;99651.84;;;19.09;58.91
11672;BME280;5892;43.412;24.612;2023-04-21T10:00:27;99650.41;;;19.26;57.24
11672;BME280;5892;43.412;24.612;2023-04-21T10:02:57;99609.78;;;19.11;56.83
11672;BME280;5892;43.412;24.612;2023-04-21T10:05:28;99644.78;;;19.70;56.41
11672;BME280;5892;43.412;24.612;2023-04-21T10:08:12;99655.66;;;19.96;54.63
11672;BME280;5892;43.412;24.612;2023-04-21T10:10:44;99631.16;;;20.19;53.58
11672;BME280;5892;43.412;24.612;2023-04-21T10:13:13;99640.22;;;20.06;52.92
11672;BME280;5892;43.412;24.612;2023-04-21T10:15:43;99624.13;;;19.67;53.41
11672;BME280;5892;43.412;24.612;2023-04-21T10:18:21;99506.94;;;18.49;53.65
11672;BME280;5892;43.412;24.612;2023-04-21T10:20:51;99454.41;;;17.52;56.26
11672;BME280;5892;43.412;24.612;2023-04-21T10:23:27;99614.69;;;18.80;56.65
11672;BME280;5892;43.412;24.612;2023-04-21T10:26:00;99624.53;;;18.74;55.58
11672;BME280;5892;43.412;24.612;2023-04-21T10:28:51;99510.28;;;17.88;55.05
11672;BME280;5892;43.412;24.612;2023-04-21T10:31:30;99466.56;;;17.44;55.77
11672;BME280;5892;43.412;24.612;2023-04-21T10:34:18;99457.03;;;17.12;58.55
11672;BME280;5892;43.412;24.612;2023-04-21T10:37:11;99599.41;;;18.27;60.04
11672;BME280;5892;43.412;24.612;2023-04-21T10:40:01;99481.47;;;17.62;61.00
11672;BME280;5892;43.412;24.612;2023-04-21T10:42:37;99600.06;;;18.87;55.92
11672;BME280;5892;43.412;24.612;2023-04-21T10:45:09;99469.06;;;18.27;54.98
11672;BME280;5892;43.412;24.612;2023-04-21T10:47:42;99594.59;;;19.45;55.90
11672;BME280;5892;43.412;24.612;2023-04-21T10:50:12;99517.94;;;19.40;55.79
11672;BME280;5892;43.412;24.612;2023-04-21T10:52:44;99623.84;;;19.86;51.83
11672;BME280;5892;43.412;24.612;2023-04-21T10:55:12;99589.50;;;19.54;52.27
11672;BME280;5892;43.412;24.612;2023-04-21T10:57:43;99599.19;;;19.27;51.39
11672;BME280;5892;43.412;24.612;2023-04-21T11:00:15;99564.91;;;19.01;52.52
11672;BME280;5892;43.412;24.612;2023-04-21T11:02:43;99525.66;;;19.07;53.22
11672;BME280;5892;43.412;24.612;2023-04-21T11:05:10;99459.69;;;18.86;53.17
11672;BME280;5892;43.412;24.612;2023-04-21T11:07:39;99590.03;;;19.81;50.63
11672;BME280;5892;43.412;24.612;2023-04-21T11:10:07;99478.91;;;19.16;46.67
11672;BME280;5892;43.412;24.612;2023-04-21T11:12:37;99481.78;;;19.37;46.94
11672;BME280;5892;43.412;24.612;2023-04-21T11:15:10;99462.34;;;19.30;46.82
11672;BME280;5892;43.412;24.612;2023-04-21T11:17:39;99546.03;;;20.01;46.97
11672;BME280;5892;43.412;24.612;2023-04-21T11:20:08;99552.94;;;20.35;45.62
11672;BME280;5892;43.412;24.612;2023-04-21T11:22:36;99497.41;;;19.63;42.87
11672;BME280;5892;43.412;24.612;2023-04-21T11:25:05;99486.41;;;19.95;44.34
11672;BME280;5892;43.412;24.612;2023-04-21T11:27:52;99572.47;;;20.85;43.98
11672;BME280;5892;43.412;24.612;2023-04-21T11:30:30;99535.88;;;20.72;42.86
11672;BME280;5892;43.412;24.612;2023-04-21T11:32:58;99583.22;;;21.11;42.97
11672;BME280;5892;43.412;24.612;2023-04-21T11:35:26;99546.22;;;21.18;43.94
11672;BME280;5892;43.412;24.612;2023-04-21T11:37:55;99568.84;;;21.55;41.81
11672;BME280;5892;43.412;24.612;2023-04-21T11:40:23;99545.44;;;21.17;42.01
11672;BME280;5892;43.412;24.612;2023-04-21T11:42:51;99564.50;;;21.33;43.62
11672;BME280;5892;43.412;24.612;2023-04-21T11:45:21;99593.97;;;21.23;42.38
11672;BME280;5892;43.412;24.612;2023-04-21T11:47:48;99554.56;;;21.28;43.39
11672;BME280;5892;43.412;24.612;2023-04-21T11:50:29;99435.25;;;20.31;42.03
11672;BME280;5892;43.412;24.612;2023-04-21T11:52:57;99574.03;;;20.61;40.40
11672;BME280;5892;43.412;24.612;2023-04-21T11:55:27;99453.72;;;19.53;41.68
11672;BME280;5892;43.412;24.612;2023-04-21T11:57:55;99556.13;;;20.41;41.53
11672;BME280;5892;43.412;24.612;2023-04-21T12:00:31;99561.16;;;20.03;41.32
11672;BME280;5892;43.412;24.612;2023-04-21T12:02:59;99516.47;;;19.57;41.79
11672;BME280;5892;43.412;24.612;2023-04-21T12:05:33;99428.41;;;18.92;42.92
11672;BME280;5892;43.412;24.612;2023-04-21T12:08:05;99568.06;;;19.51;42.05
11672;BME280;5892;43.412;24.612;2023-04-21T12:10:31;99554.38;;;19.32;43.28
11672;BME280;5892;43.412;24.612;2023-04-21T12:12:58;99509.13;;;19.28;43.37
11672;BME280;5892;43.412;24.612;2023-04-21T12:15:30;99544.22;;;19.54;45.21
11672;BME280;5892;43.412;24.612;2023-04-21T12:17:57;99533.31;;;19.93;44.31
11672;BME280;5892;43.412;24.612;2023-04-21T12:20:27;99546.16;;;20.36;43.84
11672;BME280;5892;43.412;24.612;2023-04-21T12:22:55;99521.53;;;20.63;45.62
11672;BME280;5892;43.412;24.612;2023-04-21T12:25:21;99531.09;;;20.97;44.45
11672;BME280;5892;43.412;24.612;2023-04-21T12:27:49;99521.56;;;20.98;45.03
11672;BME280;5892;43.412;24.612;2023-04-21T12:30:17;99536.66;;;21.29;44.11
11672;BME280;5892;43.412;24.612;2023-04-21T12:32:45;99525.91;;;21.24;43.90
11672;BME280;5892;43.412;24.612;2023-04-21T12:35:12;99535.44;;;21.30;44.52
11672;BME280;5892;43.412;24.612;2023-04-21T12:37:39;99541.81;;;21.13;42.94
11672;BME280;5892;43.412;24.612;2023-04-21T12:40:07;99531.88;;;21.12;43.74
11672;BME280;5892;43.412;24.612;2023-04-21T12:42:34;99535.47;;;21.16;44.04
11672;BME280;5892;43.412;24.612;2023-04-21T12:45:01;99510.78;;;21.29;43.98
11672;BME280;5892;43.412;24.612;2023-04-21T12:47:29;99517.47;;;21.60;44.11
11672;BME280;5892;43.412;24.612;2023-04-21T12:49:58;99527.13;;;21.16;43.29
11672;BME280;5892;43.412;24.612;2023-04-21T12:52:25;99533.47;;;20.70;45.88
11672;BME280;5892;43.412;24.612;2023-04-21T12:54:51;99535.84;;;20.68;46.20
11672;BME280;5892;43.412;24.612;2023-04-21T12:57:19;99537.47;;;20.66;46.08
11672;BME280;5892;43.412;24.612;2023-04-21T12:59:46;99531.50;;;20.75;44.00
11672;BME280;5892;43.412;24.612;2023-04-21T13:02:13;99521.53;;;21.02;44.71
11672;BME280;5892;43.412;24.612;2023-04-21T13:04:40;99527.13;;;20.66;45.76